sensor_id;sensor_type;location;lat;lon;timestamp;P1;P2;P0
32503;PMS5003;18953;45.930;13.640;2023-03-30T00:04:01;59;48;
32503;PMS5003;18953;45.930;13.640;2023-03-30T00:09:17;34;30;
32503;PMS5003;18953;45.930;13.640;2023-03-30T00:14:34;47;42;
32503;PMS5003;18953;45.930;13.640;2023-03-30T00:19:51;47;41;
32503;PMS5003;18953;45.930;13.640;2023-03-30T00:25:08;46;41;
32503;PMS5003;18953;45.930;13.640;2023-03-30T00:30:24;49;42;
32503;PMS5003;18953;45.930;13.640;2023-03-30T00:35:41;27;24;
32503;PMS5003;18953;45.930;13.640;2023-03-30T00:40:58;23;20;
32503;PMS5003;18953;45.930;13.640;2023-03-30T00:46:14;29;28;
32503;PMS5003;18953;45.930;13.640;2023-03-30T00:51:31;33;29;
32503;PMS5003;18953;45.930;13.640;2023-03-30T00:56:47;30;26;
32503;PMS5003;18953;45.930;13.640;2023-03-30T01:02:04;32;26;
32503;PMS5003;18953;45.930;13.640;2023-03-30T01:07:20;27;23;
32503;PMS5003;18953;45.930;13.640;2023-03-30T01:12:37;26;25;
32503;PMS5003;18953;45.930;13.640;2023-03-30T01:17:56;23;23;
32503;PMS5003;18953;45.930;13.640;2023-03-30T01:23:12;26;24;
32503;PMS5003;18953;45.930;13.640;2023-03-30T01:28:28;18;17;
32503;PMS5003;18953;45.930;13.640;2023-03-30T01:33:47;19;18;
32503;PMS5003;18953;45.930;13.640;2023-03-30T01:39:32;17;15;
32503;PMS5003;18953;45.930;13.640;2023-03-30T01:44:16;15;14;
32503;PMS5003;18953;45.930;13.640;2023-03-30T01:49:34;16;15;
32503;PMS5003;18953;45.930;13.640;2023-03-30T01:54:48;22;19;
32503;PMS5003;18953;45.930;13.640;2023-03-30T02:00:06;24;19;
32503;PMS5003;18953;45.930;13.640;2023-03-30T02:05:21;25;21;
32503;PMS5003;18953;45.930;13.640;2023-03-30T02:10:37;24;22;
32503;PMS5003;18953;45.930;13.640;2023-03-30T02:15:55;20;19;
32503;PMS5003;18953;45.930;13.640;2023-03-30T02:21:10;11;11;
32503;PMS5003;18953;45.930;13.640;2023-03-30T02:26:26;13;12;
32503;PMS5003;18953;45.930;13.640;2023-03-30T02:31:42;13;12;
32503;PMS5003;18953;45.930;13.640;2023-03-30T02:37:03;12;12;
32503;PMS5003;18953;45.930;13.640;2023-03-30T02:42:21;19;18;
32503;PMS5003;18953;45.930;13.640;2023-03-30T02:47:33;14;12;
32503;PMS5003;18953;45.930;13.640;2023-03-30T02:52:50;14;13;
32503;PMS5003;18953;45.930;13.640;2023-03-30T02:58:05;15;14;
32503;PMS5003;18953;45.930;13.640;2023-03-30T03:03:22;13;12;
32503;PMS5003;18953;45.930;13.640;2023-03-30T03:08:38;13;13;
32503;PMS5003;18953;45.930;13.640;2023-03-30T03:13:54;14;14;
32503;PMS5003;18953;45.930;13.640;2023-03-30T03:19:10;14;12;
32503;PMS5003;18953;45.930;13.640;2023-03-30T03:24:27;16;13;
32503;PMS5003;18953;45.930;13.640;2023-03-30T03:29:43;46;41;
32503;PMS5003;18953;45.930;13.640;2023-03-30T03:34:59;12;12;
32503;PMS5003;18953;45.930;13.640;2023-03-30T03:40:15;17;14;
32503;PMS5003;18953;45.930;13.640;2023-03-30T03:45:32;13;13;
32503;PMS5003;18953;45.930;13.640;2023-03-30T03:50:49;18;15;
32503;PMS5003;18953;45.930;13.640;2023-03-30T03:56:05;19;17;
32503;PMS5003;18953;45.930;13.640;2023-03-30T04:01:21;20;16;
32503;PMS5003;18953;45.930;13.640;2023-03-30T04:06:37;20;16;
32503;PMS5003;18953;45.930;13.640;2023-03-30T04:12:38;20;19;
32503;PMS5003;18953;45.930;13.640;2023-03-30T04:17:55;20;18;
32503;PMS5003;18953;45.930;13.640;2023-03-30T04:23:11;22;20;
32503;PMS5003;18953;45.930;13.640;2023-03-30T04:28:28;16;16;
32503;PMS5003;18953;45.930;13.640;2023-03-30T04:33:44;20;18;
32503;PMS5003;18953;45.930;13.640;2023-03-30T04:39:00;23;22;
32503;PMS5003;18953;45.930;13.640;2023-03-30T04:44:17;30;29;
32503;PMS5003;18953;45.930;13.640;2023-03-30T04:49:34;23;21;
32503;PMS5003;18953;45.930;13.640;2023-03-30T04:54:50;16;16;
32503;PMS5003;18953;45.930;13.640;2023-03-30T05:00:07;27;25;
32503;PMS5003;18953;45.930;13.640;2023-03-30T05:05:23;23;19;
32503;PMS5003;18953;45.930;13.640;2023-03-30T05:10:39;29;27;
32503;PMS5003;18953;45.930;13.640;2023-03-30T05:15:56;27;22;
32503;PMS5003;18953;45.930;13.640;2023-03-30T05:21:12;35;31;
32503;PMS5003;18953;45.930;13.640;2023-03-30T05:26:29;26;26;
32503;PMS5003;18953;45.930;13.640;2023-03-30T05:31:45;39;36;
32503;PMS5003;18953;45.930;13.640;2023-03-30T05:37:01;27;24;
32503;PMS5003;18953;45.930;13.640;2023-03-30T05:42:18;21;19;
32503;PMS5003;18953;45.930;13.640;2023-03-30T05:47:34;22;21;
32503;PMS5003;18953;45.930;13.640;2023-03-30T05:52:50;25;23;
32503;PMS5003;18953;45.930;13.640;2023-03-30T05:58:07;26;22;
32503;PMS5003;18953;45.930;13.640;2023-03-30T06:03:23;36;31;
32503;PMS5003;18953;45.930;13.640;2023-03-30T06:08:40;24;22;
32503;PMS5003;18953;45.930;13.640;2023-03-30T06:13:56;26;25;
32503;PMS5003;18953;45.930;13.640;2023-03-30T06:19:13;32;30;
32503;PMS5003;18953;45.930;13.640;2023-03-30T06:24:29;28;26;
32503;PMS5003;18953;45.930;13.640;2023-03-30T06:29:45;33;29;
32503;PMS5003;18953;45.930;13.640;2023-03-30T06:35:02;21;20;
32503;PMS5003;18953;45.930;13.640;2023-03-30T06:40:18;25;20;
32503;PMS5003;18953;45.930;13.640;2023-03-30T06:45:35;22;21;
32503;PMS5003;18953;45.930;13.640;2023-03-30T06:50:51;25;21;
32503;PMS5003;18953;45.930;13.640;2023-03-30T06:56:08;26;26;
32503;PMS5003;18953;45.930;13.640;2023-03-30T07:01:24;27;27;
32503;PMS5003;18953;45.930;13.640;2023-03-30T07:06:41;30;30;
32503;PMS5003;18953;45.930;13.640;2023-03-30T07:11:57;26;24;
32503;PMS5003;18953;45.930;13.640;2023-03-30T07:17:13;35;30;
32503;PMS5003;18953;45.930;13.640;2023-03-30T07:22:30;34;32;
32503;PMS5003;18953;45.930;13.640;2023-03-30T07:27:47;32;28;
32503;PMS5003;18953;45.930;13.640;2023-03-30T07:33:03;23;21;
32503;PMS5003;18953;45.930;13.640;2023-03-30T07:38:19;29;25;
32503;PMS5003;18953;45.930;13.640;2023-03-30T07:43:36;26;24;
32503;PMS5003;18953;45.930;13.640;2023-03-30T07:48:52;29;26;
32503;PMS5003;18953;45.930;13.640;2023-03-30T07:54:08;46;40;
32503;PMS5003;18953;45.930;13.640;2023-03-30T07:59:25;28;23;
32503;PMS5003;18953;45.930;13.640;2023-03-30T08:04:41;24;22;
32503;PMS5003;18953;45.930;13.640;2023-03-30T08:09:57;23;20;
32503;PMS5003;18953;45.930;13.640;2023-03-30T08:15:14;22;20;
32503;PMS5003;18953;45.930;13.640;2023-03-30T08:20:30;21;20;
32503;PMS5003;18953;45.930;13.640;2023-03-30T08:25:47;19;18;
32503;PMS5003;18953;45.930;13.640;2023-03-30T08:31:03;23;21;
32503;PMS5003;18953;45.930;13.640;2023-03-30T08:36:19;18;18;
32503;PMS5003;18953;45.930;13.640;2023-03-30T08:41:52;17;16;
32503;PMS5003;18953;45.930;13.640;2023-03-30T08:46:52;16;15;
32503;PMS5003;18953;45.930;13.640;2023-03-30T08:52:10;13;12;
32503;PMS5003;18953;45.930;13.640;2023-03-30T08:57:30;16;15;
32503;PMS5003;18953;45.930;13.640;2023-03-30T09:02:42;23;22;
32503;PMS5003;18953;45.930;13.640;2023-03-30T09:07:59;30;27;
32503;PMS5003;18953;45.930;13.640;2023-03-30T09:13:15;31;27;
32503;PMS5003;18953;45.930;13.640;2023-03-30T09:18:31;24;22;
32503;PMS5003;18953;45.930;13.640;2023-03-30T09:23:47;22;19;
32503;PMS5003;18953;45.930;13.640;2023-03-30T09:29:04;19;18;
32503;PMS5003;18953;45.930;13.640;2023-03-30T09:34:22;24;22;
32503;PMS5003;18953;45.930;13.640;2023-03-30T09:39:36;21;20;
32503;PMS5003;18953;45.930;13.640;2023-03-30T09:44:54;14;14;
32503;PMS5003;18953;45.930;13.640;2023-03-30T09:50:10;14;12;
32503;PMS5003;18953;45.930;13.640;2023-03-30T09:55:27;11;10;
32503;PMS5003;18953;45.930;13.640;2023-03-30T10:00:41;14;12;
32503;PMS5003;18953;45.930;13.640;2023-03-30T10:06:00;17;17;
32503;PMS5003;18953;45.930;13.640;2023-03-30T10:11:18;23;22;
32503;PMS5003;18953;45.930;13.640;2023-03-30T10:16:31;29;27;
32503;PMS5003;18953;45.930;13.640;2023-03-30T10:21:47;20;19;
32503;PMS5003;18953;45.930;13.640;2023-03-30T10:27:07;22;21;
32503;PMS5003;18953;45.930;13.640;2023-03-30T10:32:20;18;18;
32503;PMS5003;18953;45.930;13.640;2023-03-30T10:37:37;13;11;
32503;PMS5003;18953;45.930;13.640;2023-03-30T10:42:53;14;13;
32503;PMS5003;18953;45.930;13.640;2023-03-30T10:48:14;13;12;
32503;PMS5003;18953;45.930;13.640;2023-03-30T10:53:30;13;12;
32503;PMS5003;18953;45.930;13.640;2023-03-30T10:58:47;22;21;
32503;PMS5003;18953;45.930;13.640;2023-03-30T11:03:59;15;14;
32503;PMS5003;18953;45.930;13.640;2023-03-30T11:09:16;12;11;
32503;PMS5003;18953;45.930;13.640;2023-03-30T11:14:37;5;4;
32503;PMS5003;18953;45.930;13.640;2023-03-30T11:19:48;6;6;
32503;PMS5003;18953;45.930;13.640;2023-03-30T11:25:06;5;5;
32503;PMS5003;18953;45.930;13.640;2023-03-30T11:30:20;6;6;
32503;PMS5003;18953;45.930;13.640;2023-03-30T11:35:38;51;39;
32503;PMS5003;18953;45.930;13.640;2023-03-30T11:40:54;13;12;
32503;PMS5003;18953;45.930;13.640;2023-03-30T11:46:11;9;9;
32503;PMS5003;18953;45.930;13.640;2023-03-30T11:51:31;9;9;
32503;PMS5003;18953;45.930;13.640;2023-03-30T11:56:43;15;14;
32503;PMS5003;18953;45.930;13.640;2023-03-30T12:02:02;10;10;
32503;PMS5003;18953;45.930;13.640;2023-03-30T12:07:19;9;8;
32503;PMS5003;18953;45.930;13.640;2023-03-30T12:12:32;6;6;
32503;PMS5003;18953;45.930;13.640;2023-03-30T12:17:48;11;10;
32503;PMS5003;18953;45.930;13.640;2023-03-30T12:23:08;10;10;
32503;PMS5003;18953;45.930;13.640;2023-03-30T12:28:22;9;9;
32503;PMS5003;18953;45.930;13.640;2023-03-30T12:33:42;11;11;
32503;PMS5003;18953;45.930;13.640;2023-03-30T12:38:53;12;11;
32503;PMS5003;18953;45.930;13.640;2023-03-30T12:44:28;8;8;
32503;PMS5003;18953;45.930;13.640;2023-03-30T12:49:29;9;9;
32503;PMS5003;18953;45.930;13.640;2023-03-30T12:54:46;9;8;
32503;PMS5003;18953;45.930;13.640;2023-03-30T13:00:00;11;10;
32503;PMS5003;18953;45.930;13.640;2023-03-30T13:05:15;9;9;
32503;PMS5003;18953;45.930;13.640;2023-03-30T13:10:33;10;9;
32503;PMS5003;18953;45.930;13.640;2023-03-30T13:15:49;9;8;
32503;PMS5003;18953;45.930;13.640;2023-03-30T13:21:15;11;10;
32503;PMS5003;18953;45.930;13.640;2023-03-30T13:26:21;33;29;
32503;PMS5003;18953;45.930;13.640;2023-03-30T13:31:54;10;9;
32503;PMS5003;18953;45.930;13.640;2023-03-30T13:36:55;10;8;
32503;PMS5003;18953;45.930;13.640;2023-03-30T13:42:14;10;10;
32503;PMS5003;18953;45.930;13.640;2023-03-30T13:47:30;11;11;
32503;PMS5003;18953;45.930;13.640;2023-03-30T13:52:42;13;11;
32503;PMS5003;18953;45.930;13.640;2023-03-30T13:57:59;12;11;
32503;PMS5003;18953;45.930;13.640;2023-03-30T14:03:31;13;11;
32503;PMS5003;18953;45.930;13.640;2023-03-30T14:08:32;16;14;
32503;PMS5003;18953;45.930;13.640;2023-03-30T14:13:48;16;15;
32503;PMS5003;18953;45.930;13.640;2023-03-30T14:19:06;18;15;
32503;PMS5003;18953;45.930;13.640;2023-03-30T14:24:25;13;13;
32503;PMS5003;18953;45.930;13.640;2023-03-30T14:29:42;10;10;
32503;PMS5003;18953;45.930;13.640;2023-03-30T14:34:53;27;24;
32503;PMS5003;18953;45.930;13.640;2023-03-30T14:40:12;13;11;
32503;PMS5003;18953;45.930;13.640;2023-03-30T14:45:26;10;10;
32503;PMS5003;18953;45.930;13.640;2023-03-30T14:50:42;16;14;
32503;PMS5003;18953;45.930;13.640;2023-03-30T14:55:59;13;11;
32503;PMS5003;18953;45.930;13.640;2023-03-30T15:01:16;11;11;
32503;PMS5003;18953;45.930;13.640;2023-03-30T15:06:31;12;12;
32503;PMS5003;18953;45.930;13.640;2023-03-30T15:11:49;12;11;
32503;PMS5003;18953;45.930;13.640;2023-03-30T15:17:07;15;13;
32503;PMS5003;18953;45.930;13.640;2023-03-30T15:22:23;13;12;
32503;PMS5003;18953;45.930;13.640;2023-03-30T15:27:37;14;14;
32503;PMS5003;18953;45.930;13.640;2023-03-30T15:32:54;10;9;
32503;PMS5003;18953;45.930;13.640;2023-03-30T15:38:12;11;10;
32503;PMS5003;18953;45.930;13.640;2023-03-30T15:43:27;16;13;
32503;PMS5003;18953;45.930;13.640;2023-03-30T15:48:44;14;12;
32503;PMS5003;18953;45.930;13.640;2023-03-30T15:54:00;13;13;
32503;PMS5003;18953;45.930;13.640;2023-03-30T15:59:16;16;14;
32503;PMS5003;18953;45.930;13.640;2023-03-30T16:04:32;14;12;
32503;PMS5003;18953;45.930;13.640;2023-03-30T16:09:48;14;12;
32503;PMS5003;18953;45.930;13.640;2023-03-30T16:15:04;10;10;
32503;PMS5003;18953;45.930;13.640;2023-03-30T16:20:21;14;10;
32503;PMS5003;18953;45.930;13.640;2023-03-30T16:25:37;12;10;
32503;PMS5003;18953;45.930;13.640;2023-03-30T16:36:15;20;18;
32503;PMS5003;18953;45.930;13.640;2023-03-30T16:41:29;16;15;
32503;PMS5003;18953;45.930;13.640;2023-03-30T16:46:46;12;12;
32503;PMS5003;18953;45.930;13.640;2023-03-30T16:52:03;11;10;
32503;PMS5003;18953;45.930;13.640;2023-03-30T16:57:19;23;21;
32503;PMS5003;18953;45.930;13.640;2023-03-30T17:02:35;18;17;
32503;PMS5003;18953;45.930;13.640;2023-03-30T17:07:52;24;23;
32503;PMS5003;18953;45.930;13.640;2023-03-30T17:13:08;36;29;
32503;PMS5003;18953;45.930;13.640;2023-03-30T17:18:24;23;22;
32503;PMS5003;18953;45.930;13.640;2023-03-30T17:23:41;45;39;
32503;PMS5003;18953;45.930;13.640;2023-03-30T17:28:57;25;24;
32503;PMS5003;18953;45.930;13.640;2023-03-30T17:34:14;39;34;
32503;PMS5003;18953;45.930;13.640;2023-03-30T17:39:30;26;26;
32503;PMS5003;18953;45.930;13.640;2023-03-30T17:44:47;30;26;
32503;PMS5003;18953;45.930;13.640;2023-03-30T17:50:10;39;35;
32503;PMS5003;18953;45.930;13.640;2023-03-30T17:55:20;23;22;
32503;PMS5003;18953;45.930;13.640;2023-03-30T18:00:36;29;27;
32503;PMS5003;18953;45.930;13.640;2023-03-30T18:05:52;25;23;
32503;PMS5003;18953;45.930;13.640;2023-03-30T18:11:08;45;40;
32503;PMS5003;18953;45.930;13.640;2023-03-30T18:16:25;41;37;
32503;PMS5003;18953;45.930;13.640;2023-03-30T18:21:41;35;30;
32503;PMS5003;18953;45.930;13.640;2023-03-30T18:26:58;31;28;
32503;PMS5003;18953;45.930;13.640;2023-03-30T18:32:14;28;25;
32503;PMS5003;18953;45.930;13.640;2023-03-30T18:37:30;19;18;
32503;PMS5003;18953;45.930;13.640;2023-03-30T18:42:47;13;11;
32503;PMS5003;18953;45.930;13.640;2023-03-30T18:48:03;19;18;
32503;PMS5003;18953;45.930;13.640;2023-03-30T18:53:20;28;26;
32503;PMS5003;18953;45.930;13.640;2023-03-30T18:58:36;37;31;
32503;PMS5003;18953;45.930;13.640;2023-03-30T19:03:53;42;36;
32503;PMS5003;18953;45.930;13.640;2023-03-30T19:09:09;25;23;
32503;PMS5003;18953;45.930;13.640;2023-03-30T19:14:26;16;15;
32503;PMS5003;18953;45.930;13.640;2023-03-30T19:19:42;21;18;
32503;PMS5003;18953;45.930;13.640;2023-03-30T19:24:58;22;20;
32503;PMS5003;18953;45.930;13.640;2023-03-30T19:30:16;30;28;
32503;PMS5003;18953;45.930;13.640;2023-03-30T19:35:31;26;22;
32503;PMS5003;18953;45.930;13.640;2023-03-30T19:40:47;36;26;
32503;PMS5003;18953;45.930;13.640;2023-03-30T19:46:04;28;26;
32503;PMS5003;18953;45.930;13.640;2023-03-30T19:51:20;20;19;
32503;PMS5003;18953;45.930;13.640;2023-03-30T19:56:37;22;20;
32503;PMS5003;18953;45.930;13.640;2023-03-30T20:01:53;21;19;
32503;PMS5003;18953;45.930;13.640;2023-03-30T20:07:10;15;14;
32503;PMS5003;18953;45.930;13.640;2023-03-30T20:12:26;14;14;
32503;PMS5003;18953;45.930;13.640;2023-03-30T20:17:42;17;14;
32503;PMS5003;18953;45.930;13.640;2023-03-30T20:22:59;17;14;
32503;PMS5003;18953;45.930;13.640;2023-03-30T20:28:15;13;12;
32503;PMS5003;18953;45.930;13.640;2023-03-30T20:33:31;11;11;
32503;PMS5003;18953;45.930;13.640;2023-03-30T20:38:48;18;15;
32503;PMS5003;18953;45.930;13.640;2023-03-30T20:44:04;30;27;
32503;PMS5003;18953;45.930;13.640;2023-03-30T20:49:21;36;30;
32503;PMS5003;18953;45.930;13.640;2023-03-30T20:54:37;32;29;
32503;PMS5003;18953;45.930;13.640;2023-03-30T20:59:54;34;29;
32503;PMS5003;18953;45.930;13.640;2023-03-30T21:05:11;36;32;
32503;PMS5003;18953;45.930;13.640;2023-03-30T21:10:26;31;29;
32503;PMS5003;18953;45.930;13.640;2023-03-30T21:15:43;30;26;
32503;PMS5003;18953;45.930;13.640;2023-03-30T21:20:59;31;28;
32503;PMS5003;18953;45.930;13.640;2023-03-30T21:26:16;31;30;
32503;PMS5003;18953;45.930;13.640;2023-03-30T21:31:32;20;19;
32503;PMS5003;18953;45.930;13.640;2023-03-30T21:36:49;23;20;
32503;PMS5003;18953;45.930;13.640;2023-03-30T21:42:05;21;20;
32503;PMS5003;18953;45.930;13.640;2023-03-30T21:47:21;24;23;
32503;PMS5003;18953;45.930;13.640;2023-03-30T21:52:38;18;17;
32503;PMS5003;18953;45.930;13.640;2023-03-30T21:57:54;25;22;
32503;PMS5003;18953;45.930;13.640;2023-03-30T22:03:11;20;18;
32503;PMS5003;18953;45.930;13.640;2023-03-30T22:08:27;13;12;
32503;PMS5003;18953;45.930;13.640;2023-03-30T22:13:44;14;12;
32503;PMS5003;18953;45.930;13.640;2023-03-30T22:19:00;13;11;
32503;PMS5003;18953;45.930;13.640;2023-03-30T22:24:16;10;9;
32503;PMS5003;18953;45.930;13.640;2023-03-30T22:29:33;9;9;
32503;PMS5003;18953;45.930;13.640;2023-03-30T22:34:49;9;7;
32503;PMS5003;18953;45.930;13.640;2023-03-30T22:40:06;9;8;
32503;PMS5003;18953;45.930;13.640;2023-03-30T22:45:22;8;7;
32503;PMS5003;18953;45.930;13.640;2023-03-30T22:50:38;15;12;
32503;PMS5003;18953;45.930;13.640;2023-03-30T22:55:54;15;14;
32503;PMS5003;18953;45.930;13.640;2023-03-30T23:01:11;18;17;
32503;PMS5003;18953;45.930;13.640;2023-03-30T23:06:27;15;15;
32503;PMS5003;18953;45.930;13.640;2023-03-30T23:11:44;18;16;
32503;PMS5003;18953;45.930;13.640;2023-03-30T23:17:00;14;12;
32503;PMS5003;18953;45.930;13.640;2023-03-30T23:22:16;13;11;
32503;PMS5003;18953;45.930;13.640;2023-03-30T23:27:33;12;11;
32503;PMS5003;18953;45.930;13.640;2023-03-30T23:32:49;16;14;
32503;PMS5003;18953;45.930;13.640;2023-03-30T23:38:05;13;13;
32503;PMS5003;18953;45.930;13.640;2023-03-30T23:43:22;14;13;
32503;PMS5003;18953;45.930;13.640;2023-03-30T23:48:38;16;14;
32503;PMS5003;18953;45.930;13.640;2023-03-30T23:53:55;13;12;
32503;PMS5003;18953;45.930;13.640;2023-03-30T23:59:11;15;13;
